sensor_id;sensor_type;location;lat;lon;timestamp;temperature;humidity
54898;DHT22;40800;52.704;6.398;2023-07-02T00:01:45;15.40;99.90
54898;DHT22;40800;52.704;6.398;2023-07-02T00:04:11;15.50;99.90
54898;DHT22;40800;52.704;6.398;2023-07-02T00:06:44;15.50;99.90
54898;DHT22;40800;52.704;6.398;2023-07-02T00:09:11;15.10;99.90
54898;DHT22;40800;52.704;6.398;2023-07-02T00:11:40;15.20;99.90
54898;DHT22;40800;52.704;6.398;2023-07-02T00:14:07;15.20;99.90
54898;DHT22;40800;52.704;6.398;2023-07-02T00:16:34;15.00;99.90
54898;DHT22;40800;52.704;6.398;2023-07-02T00:19:00;15.30;99.90
54898;DHT22;40800;52.704;6.398;2023-07-02T00:21:26;15.10;99.90
54898;DHT22;40800;52.704;6.398;2023-07-02T00:23:56;15.20;99.90
54898;DHT22;40800;52.704;6.398;2023-07-02T00:26:23;15.40;99.90
54898;DHT22;40800;52.704;6.398;2023-07-02T00:28:49;15.00;99.90
54898;DHT22;40800;52.704;6.398;2023-07-02T00:31:15;15.10;99.90
54898;DHT22;40800;52.704;6.398;2023-07-02T00:33:40;15.40;99.90
54898;DHT22;40800;52.704;6.398;2023-07-02T00:36:06;15.00;99.90
54898;DHT22;40800;52.704;6.398;2023-07-02T00:38:31;15.40;99.90
54898;DHT22;40800;52.704;6.398;2023-07-02T00:40:57;15.30;99.90
54898;DHT22;40800;52.704;6.398;2023-07-02T00:43:23;14.90;99.90
54898;DHT22;40800;52.704;6.398;2023-07-02T00:45:48;15.30;99.90
54898;DHT22;40800;52.704;6.398;2023-07-02T00:48:14;15.20;99.90
54898;DHT22;40800;52.704;6.398;2023-07-02T00:50:40;15.20;99.90
54898;DHT22;40800;52.704;6.398;2023-07-02T00:53:06;14.90;99.90
54898;DHT22;40800;52.704;6.398;2023-07-02T00:55:31;15.00;99.90
54898;DHT22;40800;52.704;6.398;2023-07-02T00:57:57;14.90;99.90
54898;DHT22;40800;52.704;6.398;2023-07-02T01:00:23;14.90;99.90
54898;DHT22;40800;52.704;6.398;2023-07-02T01:02:55;14.90;99.90
54898;DHT22;40800;52.704;6.398;2023-07-02T01:05:28;15.00;99.90
54898;DHT22;40800;52.704;6.398;2023-07-02T01:08:06;14.90;99.90
54898;DHT22;40800;52.704;6.398;2023-07-02T01:10:32;14.80;99.90
54898;DHT22;40800;52.704;6.398;2023-07-02T01:13:04;14.80;99.90
54898;DHT22;40800;52.704;6.398;2023-07-02T01:15:31;14.70;99.90
54898;DHT22;40800;52.704;6.398;2023-07-02T01:17:57;14.70;99.90
54898;DHT22;40800;52.704;6.398;2023-07-02T01:20:24;14.60;99.90
54898;DHT22;40800;52.704;6.398;2023-07-02T01:22:50;14.60;99.90
54898;DHT22;40800;52.704;6.398;2023-07-02T01:25:17;14.50;99.90
54898;DHT22;40800;52.704;6.398;2023-07-02T01:27:43;14.50;99.90
54898;DHT22;40800;52.704;6.398;2023-07-02T01:30:09;14.30;99.90
54898;DHT22;40800;52.704;6.398;2023-07-02T01:32:36;14.40;99.90
54898;DHT22;40800;52.704;6.398;2023-07-02T01:35:02;14.20;99.90
54898;DHT22;40800;52.704;6.398;2023-07-02T01:37:28;14.30;99.90
54898;DHT22;40800;52.704;6.398;2023-07-02T01:39:53;14.20;99.90
54898;DHT22;40800;52.704;6.398;2023-07-02T01:42:19;14.00;99.90
54898;DHT22;40800;52.704;6.398;2023-07-02T01:44:47;14.00;99.90
54898;DHT22;40800;52.704;6.398;2023-07-02T01:47:13;14.00;99.90
54898;DHT22;40800;52.704;6.398;2023-07-02T01:49:39;13.90;99.90
54898;DHT22;40800;52.704;6.398;2023-07-02T01:52:05;14.00;99.90
54898;DHT22;40800;52.704;6.398;2023-07-02T01:54:33;13.80;99.90
54898;DHT22;40800;52.704;6.398;2023-07-02T01:56:58;13.80;99.90
54898;DHT22;40800;52.704;6.398;2023-07-02T01:59:24;14.00;99.90
54898;DHT22;40800;52.704;6.398;2023-07-02T02:01:50;14.10;99.90
54898;DHT22;40800;52.704;6.398;2023-07-02T02:04:16;13.90;99.90
54898;DHT22;40800;52.704;6.398;2023-07-02T02:06:41;13.90;99.90
54898;DHT22;40800;52.704;6.398;2023-07-02T02:09:08;13.90;99.90
54898;DHT22;40800;52.704;6.398;2023-07-02T02:11:37;13.80;99.90
54898;DHT22;40800;52.704;6.398;2023-07-02T02:14:03;13.70;99.90
54898;DHT22;40800;52.704;6.398;2023-07-02T02:16:29;13.80;99.90
54898;DHT22;40800;52.704;6.398;2023-07-02T02:18:55;13.60;99.90
54898;DHT22;40800;52.704;6.398;2023-07-02T02:21:21;13.70;99.90
54898;DHT22;40800;52.704;6.398;2023-07-02T02:23:47;13.60;99.90
54898;DHT22;40800;52.704;6.398;2023-07-02T02:26:13;13.60;99.90
54898;DHT22;40800;52.704;6.398;2023-07-02T02:28:39;13.60;99.90
54898;DHT22;40800;52.704;6.398;2023-07-02T02:31:05;13.50;99.90
54898;DHT22;40800;52.704;6.398;2023-07-02T02:33:32;13.40;99.90
54898;DHT22;40800;52.704;6.398;2023-07-02T02:35:58;13.50;99.90
54898;DHT22;40800;52.704;6.398;2023-07-02T02:38:23;13.40;99.90
54898;DHT22;40800;52.704;6.398;2023-07-02T02:40:49;13.30;99.90
54898;DHT22;40800;52.704;6.398;2023-07-02T02:43:15;13.40;99.90
54898;DHT22;40800;52.704;6.398;2023-07-02T02:45:42;13.30;99.90
54898;DHT22;40800;52.704;6.398;2023-07-02T02:48:07;13.40;99.90
54898;DHT22;40800;52.704;6.398;2023-07-02T02:50:33;13.30;99.90
54898;DHT22;40800;52.704;6.398;2023-07-02T02:52:58;13.30;99.90
54898;DHT22;40800;52.704;6.398;2023-07-02T02:55:24;13.30;99.90
54898;DHT22;40800;52.704;6.398;2023-07-02T02:57:50;13.20;99.90
54898;DHT22;40800;52.704;6.398;2023-07-02T03:00:15;13.30;99.90
54898;DHT22;40800;52.704;6.398;2023-07-02T03:02:42;13.20;99.90
54898;DHT22;40800;52.704;6.398;2023-07-02T03:05:08;13.20;99.90
54898;DHT22;40800;52.704;6.398;2023-07-02T03:07:34;13.20;99.90
54898;DHT22;40800;52.704;6.398;2023-07-02T03:10:00;13.10;99.90
54898;DHT22;40800;52.704;6.398;2023-07-02T03:12:26;13.30;99.90
54898;DHT22;40800;52.704;6.398;2023-07-02T03:14:52;13.30;99.90
54898;DHT22;40800;52.704;6.398;2023-07-02T03:17:23;13.20;99.90
54898;DHT22;40800;52.704;6.398;2023-07-02T03:19:48;13.20;99.90
54898;DHT22;40800;52.704;6.398;2023-07-02T03:22:14;13.10;99.90
54898;DHT22;40800;52.704;6.398;2023-07-02T03:24:40;13.10;99.90
54898;DHT22;40800;52.704;6.398;2023-07-02T03:27:06;13.10;99.90
54898;DHT22;40800;52.704;6.398;2023-07-02T03:29:35;13.10;99.90
54898;DHT22;40800;52.704;6.398;2023-07-02T03:32:01;13.00;99.90
54898;DHT22;40800;52.704;6.398;2023-07-02T03:34:27;13.10;99.90
54898;DHT22;40800;52.704;6.398;2023-07-02T03:36:53;13.10;99.90
54898;DHT22;40800;52.704;6.398;2023-07-02T03:39:18;13.10;99.90
54898;DHT22;40800;52.704;6.398;2023-07-02T03:41:44;13.20;99.90
54898;DHT22;40800;52.704;6.398;2023-07-02T03:44:10;13.20;99.90
54898;DHT22;40800;52.704;6.398;2023-07-02T03:46:35;13.30;99.90
54898;DHT22;40800;52.704;6.398;2023-07-02T03:49:02;13.20;99.90
54898;DHT22;40800;52.704;6.398;2023-07-02T03:51:29;13.30;99.90
54898;DHT22;40800;52.704;6.398;2023-07-02T03:53:54;13.40;99.90
54898;DHT22;40800;52.704;6.398;2023-07-02T03:56:20;13.40;99.90
54898;DHT22;40800;52.704;6.398;2023-07-02T03:58:45;13.30;99.90
54898;DHT22;40800;52.704;6.398;2023-07-02T04:01:11;13.40;99.90
54898;DHT22;40800;52.704;6.398;2023-07-02T04:03:37;13.30;99.90
54898;DHT22;40800;52.704;6.398;2023-07-02T04:06:02;13.30;99.90
54898;DHT22;40800;52.704;6.398;2023-07-02T04:08:31;13.40;99.90
54898;DHT22;40800;52.704;6.398;2023-07-02T04:10:56;13.50;99.90
54898;DHT22;40800;52.704;6.398;2023-07-02T04:13:22;13.40;99.90
54898;DHT22;40800;52.704;6.398;2023-07-02T04:15:48;13.30;99.90
54898;DHT22;40800;52.704;6.398;2023-07-02T04:18:13;13.40;99.90
54898;DHT22;40800;52.704;6.398;2023-07-02T04:20:39;13.40;99.90
54898;DHT22;40800;52.704;6.398;2023-07-02T04:23:05;13.60;99.90
54898;DHT22;40800;52.704;6.398;2023-07-02T04:25:31;13.60;99.90
54898;DHT22;40800;52.704;6.398;2023-07-02T04:27:57;13.50;99.90
54898;DHT22;40800;52.704;6.398;2023-07-02T04:30:24;13.60;99.90
54898;DHT22;40800;52.704;6.398;2023-07-02T04:32:51;13.60;99.90
54898;DHT22;40800;52.704;6.398;2023-07-02T04:35:17;13.60;99.90
54898;DHT22;40800;52.704;6.398;2023-07-02T04:37:43;13.80;99.90
54898;DHT22;40800;52.704;6.398;2023-07-02T04:40:08;13.80;99.90
54898;DHT22;40800;52.704;6.398;2023-07-02T04:42:38;13.90;99.90
54898;DHT22;40800;52.704;6.398;2023-07-02T04:45:05;14.00;99.90
54898;DHT22;40800;52.704;6.398;2023-07-02T04:47:31;14.00;99.90
54898;DHT22;40800;52.704;6.398;2023-07-02T04:49:57;13.90;99.90
54898;DHT22;40800;52.704;6.398;2023-07-02T04:52:23;14.10;99.90
54898;DHT22;40800;52.704;6.398;2023-07-02T04:54:49;14.00;99.90
54898;DHT22;40800;52.704;6.398;2023-07-02T04:57:14;14.20;99.90
54898;DHT22;40800;52.704;6.398;2023-07-02T04:59:41;14.30;99.90
54898;DHT22;40800;52.704;6.398;2023-07-02T05:02:07;14.40;99.90
54898;DHT22;40800;52.704;6.398;2023-07-02T05:04:33;14.40;99.90
54898;DHT22;40800;52.704;6.398;2023-07-02T05:07:00;14.40;99.90
54898;DHT22;40800;52.704;6.398;2023-07-02T05:09:25;14.60;99.90
54898;DHT22;40800;52.704;6.398;2023-07-02T05:11:51;14.60;99.90
54898;DHT22;40800;52.704;6.398;2023-07-02T05:14:16;14.60;99.90
54898;DHT22;40800;52.704;6.398;2023-07-02T05:16:42;14.80;99.90
54898;DHT22;40800;52.704;6.398;2023-07-02T05:19:08;14.80;99.90
54898;DHT22;40800;52.704;6.398;2023-07-02T05:21:33;14.80;99.90
54898;DHT22;40800;52.704;6.398;2023-07-02T05:23:59;15.00;99.90
54898;DHT22;40800;52.704;6.398;2023-07-02T05:26:24;15.00;99.90
54898;DHT22;40800;52.704;6.398;2023-07-02T05:28:51;15.10;99.90
54898;DHT22;40800;52.704;6.398;2023-07-02T05:31:17;15.20;99.90
54898;DHT22;40800;52.704;6.398;2023-07-02T05:33:42;15.10;99.90
54898;DHT22;40800;52.704;6.398;2023-07-02T05:36:08;15.30;99.90
54898;DHT22;40800;52.704;6.398;2023-07-02T05:38:33;15.30;99.90
54898;DHT22;40800;52.704;6.398;2023-07-02T05:40:59;15.30;99.90
54898;DHT22;40800;52.704;6.398;2023-07-02T05:43:24;15.40;99.90
54898;DHT22;40800;52.704;6.398;2023-07-02T05:45:51;15.40;99.90
54898;DHT22;40800;52.704;6.398;2023-07-02T05:48:18;15.50;99.90
54898;DHT22;40800;52.704;6.398;2023-07-02T05:50:44;15.50;99.90
54898;DHT22;40800;52.704;6.398;2023-07-02T05:53:09;15.60;99.90
54898;DHT22;40800;52.704;6.398;2023-07-02T05:55:36;15.70;99.90
54898;DHT22;40800;52.704;6.398;2023-07-02T05:58:02;15.70;99.90
54898;DHT22;40800;52.704;6.398;2023-07-02T06:00:28;15.70;99.90
54898;DHT22;40800;52.704;6.398;2023-07-02T06:02:54;15.80;99.90
54898;DHT22;40800;52.704;6.398;2023-07-02T06:05:20;15.80;99.90
54898;DHT22;40800;52.704;6.398;2023-07-02T06:07:45;16.00;99.90
54898;DHT22;40800;52.704;6.398;2023-07-02T06:10:11;15.90;99.90
54898;DHT22;40800;52.704;6.398;2023-07-02T06:12:37;16.00;99.90
54898;DHT22;40800;52.704;6.398;2023-07-02T06:15:03;16.10;99.90
54898;DHT22;40800;52.704;6.398;2023-07-02T06:17:28;16.10;99.90
54898;DHT22;40800;52.704;6.398;2023-07-02T06:19:56;16.20;99.90
54898;DHT22;40800;52.704;6.398;2023-07-02T06:22:23;16.20;99.90
54898;DHT22;40800;52.704;6.398;2023-07-02T06:24:49;16.30;99.90
54898;DHT22;40800;52.704;6.398;2023-07-02T06:27:14;16.20;99.90
54898;DHT22;40800;52.704;6.398;2023-07-02T06:29:40;16.20;99.90
54898;DHT22;40800;52.704;6.398;2023-07-02T06:32:06;16.20;99.90
54898;DHT22;40800;52.704;6.398;2023-07-02T06:34:31;16.30;99.90
54898;DHT22;40800;52.704;6.398;2023-07-02T06:36:57;16.30;99.90
54898;DHT22;40800;52.704;6.398;2023-07-02T06:39:23;16.30;99.90
54898;DHT22;40800;52.704;6.398;2023-07-02T06:41:48;16.40;99.90
54898;DHT22;40800;52.704;6.398;2023-07-02T06:44:14;16.50;99.90
54898;DHT22;40800;52.704;6.398;2023-07-02T06:46:40;16.70;99.90
54898;DHT22;40800;52.704;6.398;2023-07-02T06:49:05;16.60;99.90
54898;DHT22;40800;52.704;6.398;2023-07-02T06:51:31;16.70;99.90
54898;DHT22;40800;52.704;6.398;2023-07-02T06:53:56;16.70;99.90
54898;DHT22;40800;52.704;6.398;2023-07-02T06:56:22;16.70;99.90
54898;DHT22;40800;52.704;6.398;2023-07-02T06:58:50;16.80;99.90
54898;DHT22;40800;52.704;6.398;2023-07-02T07:01:16;16.80;99.90
54898;DHT22;40800;52.704;6.398;2023-07-02T07:03:41;16.70;99.90
54898;DHT22;40800;52.704;6.398;2023-07-02T07:06:07;16.60;99.90
54898;DHT22;40800;52.704;6.398;2023-07-02T07:08:32;16.80;99.90
54898;DHT22;40800;52.704;6.398;2023-07-02T07:10:58;17.00;99.90
54898;DHT22;40800;52.704;6.398;2023-07-02T07:13:24;17.00;99.90
54898;DHT22;40800;52.704;6.398;2023-07-02T07:15:49;16.90;99.90
54898;DHT22;40800;52.704;6.398;2023-07-02T07:18:15;16.80;99.90
54898;DHT22;40800;52.704;6.398;2023-07-02T07:20:41;16.70;99.90
54898;DHT22;40800;52.704;6.398;2023-07-02T07:23:07;16.60;99.90
54898;DHT22;40800;52.704;6.398;2023-07-02T07:25:32;16.60;99.90
54898;DHT22;40800;52.704;6.398;2023-07-02T07:28:00;16.50;99.90
54898;DHT22;40800;52.704;6.398;2023-07-02T07:30:25;16.30;99.90
54898;DHT22;40800;52.704;6.398;2023-07-02T07:32:52;16.50;99.90
54898;DHT22;40800;52.704;6.398;2023-07-02T07:35:19;16.50;99.90
54898;DHT22;40800;52.704;6.398;2023-07-02T07:37:45;16.60;99.90
54898;DHT22;40800;52.704;6.398;2023-07-02T07:40:12;16.80;99.90
54898;DHT22;40800;52.704;6.398;2023-07-02T07:42:37;16.80;99.90
54898;DHT22;40800;52.704;6.398;2023-07-02T07:45:04;16.60;99.90
54898;DHT22;40800;52.704;6.398;2023-07-02T07:47:29;16.50;99.90
54898;DHT22;40800;52.704;6.398;2023-07-02T07:49:55;16.40;99.90
54898;DHT22;40800;52.704;6.398;2023-07-02T07:52:21;16.50;99.90
54898;DHT22;40800;52.704;6.398;2023-07-02T07:54:47;16.60;99.90
54898;DHT22;40800;52.704;6.398;2023-07-02T07:57:12;16.70;99.90
54898;DHT22;40800;52.704;6.398;2023-07-02T07:59:38;17.00;99.90
54898;DHT22;40800;52.704;6.398;2023-07-02T08:02:04;17.40;99.90
54898;DHT22;40800;52.704;6.398;2023-07-02T08:04:29;17.30;99.90
54898;DHT22;40800;52.704;6.398;2023-07-02T08:06:55;17.20;99.90
54898;DHT22;40800;52.704;6.398;2023-07-02T08:09:23;17.20;99.90
54898;DHT22;40800;52.704;6.398;2023-07-02T08:11:48;17.40;99.90
54898;DHT22;40800;52.704;6.398;2023-07-02T08:14:14;17.60;99.90
54898;DHT22;40800;52.704;6.398;2023-07-02T08:16:41;17.70;99.90
54898;DHT22;40800;52.704;6.398;2023-07-02T08:19:07;17.80;99.90
54898;DHT22;40800;52.704;6.398;2023-07-02T08:21:32;18.00;99.90
54898;DHT22;40800;52.704;6.398;2023-07-02T08:23:58;18.00;99.90
54898;DHT22;40800;52.704;6.398;2023-07-02T08:26:23;17.70;99.90
54898;DHT22;40800;52.704;6.398;2023-07-02T08:28:49;17.60;99.90
54898;DHT22;40800;52.704;6.398;2023-07-02T08:31:16;18.00;99.90
54898;DHT22;40800;52.704;6.398;2023-07-02T08:33:41;18.00;61.30
54898;DHT22;40800;52.704;6.398;2023-07-02T08:36:07;18.00;66.30
54898;DHT22;40800;52.704;6.398;2023-07-02T08:38:33;18.10;1.00
54898;DHT22;40800;52.704;6.398;2023-07-02T08:40:58;18.00;1.00
54898;DHT22;40800;52.704;6.398;2023-07-02T08:43:26;17.90;1.00
54898;DHT22;40800;52.704;6.398;2023-07-02T08:45:53;17.80;1.00
54898;DHT22;40800;52.704;6.398;2023-07-02T08:48:19;17.60;1.00
54898;DHT22;40800;52.704;6.398;2023-07-02T08:50:49;17.50;1.00
54898;DHT22;40800;52.704;6.398;2023-07-02T08:53:15;17.50;1.00
54898;DHT22;40800;52.704;6.398;2023-07-02T08:55:41;17.40;1.00
54898;DHT22;40800;52.704;6.398;2023-07-02T08:58:06;17.50;21.60
54898;DHT22;40800;52.704;6.398;2023-07-02T09:00:32;17.60;45.70
54898;DHT22;40800;52.704;6.398;2023-07-02T09:03:12;17.70;72.10
54898;DHT22;40800;52.704;6.398;2023-07-02T09:05:49;17.70;41.90
54898;DHT22;40800;52.704;6.398;2023-07-02T09:08:23;17.60;26.70
54898;DHT22;40800;52.704;6.398;2023-07-02T09:10:49;17.40;22.10
54898;DHT22;40800;52.704;6.398;2023-07-02T09:13:15;17.40;96.60
54898;DHT22;40800;52.704;6.398;2023-07-02T09:15:42;17.30;99.90
54898;DHT22;40800;52.704;6.398;2023-07-02T09:18:21;17.30;99.90
54898;DHT22;40800;52.704;6.398;2023-07-02T09:20:55;17.40;99.90
54898;DHT22;40800;52.704;6.398;2023-07-02T09:23:21;17.40;99.90
54898;DHT22;40800;52.704;6.398;2023-07-02T09:25:47;17.30;99.90
54898;DHT22;40800;52.704;6.398;2023-07-02T09:28:20;17.30;99.90
54898;DHT22;40800;52.704;6.398;2023-07-02T09:30:54;17.20;99.90
54898;DHT22;40800;52.704;6.398;2023-07-02T09:33:21;17.10;99.90
54898;DHT22;40800;52.704;6.398;2023-07-02T09:35:48;17.10;99.90
54898;DHT22;40800;52.704;6.398;2023-07-02T09:38:14;17.10;99.90
54898;DHT22;40800;52.704;6.398;2023-07-02T09:40:46;17.20;99.90
54898;DHT22;40800;52.704;6.398;2023-07-02T09:43:14;17.60;99.90
54898;DHT22;40800;52.704;6.398;2023-07-02T09:45:45;17.90;99.90
54898;DHT22;40800;52.704;6.398;2023-07-02T09:48:15;18.00;99.90
54898;DHT22;40800;52.704;6.398;2023-07-02T09:50:44;17.90;99.90
54898;DHT22;40800;52.704;6.398;2023-07-02T09:53:11;17.90;14.50
54898;DHT22;40800;52.704;6.398;2023-07-02T09:55:38;17.90;11.60
54898;DHT22;40800;52.704;6.398;2023-07-02T09:58:05;17.80;29.30
54898;DHT22;40800;52.704;6.398;2023-07-02T10:00:31;17.60;94.70
54898;DHT22;40800;52.704;6.398;2023-07-02T10:02:57;17.40;35.20
54898;DHT22;40800;52.704;6.398;2023-07-02T10:05:30;17.30;48.40
54898;DHT22;40800;52.704;6.398;2023-07-02T10:07:57;17.10;99.90
54898;DHT22;40800;52.704;6.398;2023-07-02T10:10:31;17.00;99.90
54898;DHT22;40800;52.704;6.398;2023-07-02T10:12:57;17.10;39.90
54898;DHT22;40800;52.704;6.398;2023-07-02T10:15:27;17.20;14.20
54898;DHT22;40800;52.704;6.398;2023-07-02T10:17:57;17.20;1.00
54898;DHT22;40800;52.704;6.398;2023-07-02T10:20:37;17.20;1.00
54898;DHT22;40800;52.704;6.398;2023-07-02T10:23:04;17.30;1.00
54898;DHT22;40800;52.704;6.398;2023-07-02T10:25:31;17.60;1.00
54898;DHT22;40800;52.704;6.398;2023-07-02T10:27:58;17.60;1.00
54898;DHT22;40800;52.704;6.398;2023-07-02T10:30:36;18.00;1.00
54898;DHT22;40800;52.704;6.398;2023-07-02T10:35:37;18.40;1.00
54898;DHT22;40800;52.704;6.398;2023-07-02T10:38:04;18.40;1.00
54898;DHT22;40800;52.704;6.398;2023-07-02T10:40:32;18.30;1.00
54898;DHT22;40800;52.704;6.398;2023-07-02T10:42:58;18.30;1.00
54898;DHT22;40800;52.704;6.398;2023-07-02T10:45:31;18.40;1.00
54898;DHT22;40800;52.704;6.398;2023-07-02T10:47:58;18.90;1.00
54898;DHT22;40800;52.704;6.398;2023-07-02T10:50:24;19.20;99.90
54898;DHT22;40800;52.704;6.398;2023-07-02T10:52:51;19.50;99.90
54898;DHT22;40800;52.704;6.398;2023-07-02T10:55:17;19.70;99.90
54898;DHT22;40800;52.704;6.398;2023-07-02T10:57:44;19.60;99.90
54898;DHT22;40800;52.704;6.398;2023-07-02T11:00:10;19.40;99.90
54898;DHT22;40800;52.704;6.398;2023-07-02T11:02:39;19.60;1.00
54898;DHT22;40800;52.704;6.398;2023-07-02T11:05:06;19.70;99.90
54898;DHT22;40800;52.704;6.398;2023-07-02T11:07:33;20.00;99.90
54898;DHT22;40800;52.704;6.398;2023-07-02T11:09:58;20.00;99.90
54898;DHT22;40800;52.704;6.398;2023-07-02T11:12:31;20.10;99.90
54898;DHT22;40800;52.704;6.398;2023-07-02T11:15:16;20.30;99.90
54898;DHT22;40800;52.704;6.398;2023-07-02T11:17:45;19.90;99.90
54898;DHT22;40800;52.704;6.398;2023-07-02T11:20:12;19.50;99.90
54898;DHT22;40800;52.704;6.398;2023-07-02T11:22:39;19.40;99.90
54898;DHT22;40800;52.704;6.398;2023-07-02T11:25:15;19.50;99.90
54898;DHT22;40800;52.704;6.398;2023-07-02T11:27:41;19.80;99.90
54898;DHT22;40800;52.704;6.398;2023-07-02T11:30:07;20.00;99.90
54898;DHT22;40800;52.704;6.398;2023-07-02T11:32:53;20.10;99.90
54898;DHT22;40800;52.704;6.398;2023-07-02T11:35:20;20.30;99.90
54898;DHT22;40800;52.704;6.398;2023-07-02T11:37:46;20.20;99.90
54898;DHT22;40800;52.704;6.398;2023-07-02T11:40:14;20.00;99.90
54898;DHT22;40800;52.704;6.398;2023-07-02T11:42:40;19.90;99.90
54898;DHT22;40800;52.704;6.398;2023-07-02T11:45:06;19.80;99.90
54898;DHT22;40800;52.704;6.398;2023-07-02T11:47:32;19.50;99.90
54898;DHT22;40800;52.704;6.398;2023-07-02T11:49:58;19.30;99.90
54898;DHT22;40800;52.704;6.398;2023-07-02T11:52:26;19.30;99.90
54898;DHT22;40800;52.704;6.398;2023-07-02T11:54:52;19.40;99.90
54898;DHT22;40800;52.704;6.398;2023-07-02T11:57:17;19.40;99.90
54898;DHT22;40800;52.704;6.398;2023-07-02T11:59:43;19.20;99.90
54898;DHT22;40800;52.704;6.398;2023-07-02T12:02:09;18.90;99.90
54898;DHT22;40800;52.704;6.398;2023-07-02T12:04:34;18.70;99.90
54898;DHT22;40800;52.704;6.398;2023-07-02T12:07:01;18.80;99.90
54898;DHT22;40800;52.704;6.398;2023-07-02T12:09:29;18.90;99.90
54898;DHT22;40800;52.704;6.398;2023-07-02T12:11:54;18.90;99.90
54898;DHT22;40800;52.704;6.398;2023-07-02T12:14:20;18.90;99.90
54898;DHT22;40800;52.704;6.398;2023-07-02T12:16:45;18.80;99.90
54898;DHT22;40800;52.704;6.398;2023-07-02T12:19:11;18.80;99.90
54898;DHT22;40800;52.704;6.398;2023-07-02T12:21:37;19.00;99.90
54898;DHT22;40800;52.704;6.398;2023-07-02T12:24:02;19.20;99.90
54898;DHT22;40800;52.704;6.398;2023-07-02T12:26:28;19.50;99.90
54898;DHT22;40800;52.704;6.398;2023-07-02T12:28:54;19.60;99.90
54898;DHT22;40800;52.704;6.398;2023-07-02T12:31:20;19.40;99.90
54898;DHT22;40800;52.704;6.398;2023-07-02T12:33:45;19.30;99.90
54898;DHT22;40800;52.704;6.398;2023-07-02T12:36:11;19.00;98.00
54898;DHT22;40800;52.704;6.398;2023-07-02T12:38:37;18.70;99.90
54898;DHT22;40800;52.704;6.398;2023-07-02T12:41:03;18.70;99.90
54898;DHT22;40800;52.704;6.398;2023-07-02T12:43:28;19.00;99.90
54898;DHT22;40800;52.704;6.398;2023-07-02T12:45:54;19.30;99.90
54898;DHT22;40800;52.704;6.398;2023-07-02T12:48:20;19.20;99.90
54898;DHT22;40800;52.704;6.398;2023-07-02T12:50:56;18.80;99.90
54898;DHT22;40800;52.704;6.398;2023-07-02T12:53:22;18.70;99.90
54898;DHT22;40800;52.704;6.398;2023-07-02T12:55:48;18.60;99.90
54898;DHT22;40800;52.704;6.398;2023-07-02T12:58:13;18.60;99.90
54898;DHT22;40800;52.704;6.398;2023-07-02T13:00:39;18.70;99.90
54898;DHT22;40800;52.704;6.398;2023-07-02T13:03:05;18.70;95.80
54898;DHT22;40800;52.704;6.398;2023-07-02T13:05:30;18.80;74.10
54898;DHT22;40800;52.704;6.398;2023-07-02T13:07:56;19.40;81.90
54898;DHT22;40800;52.704;6.398;2023-07-02T13:10:21;20.00;1.00
54898;DHT22;40800;52.704;6.398;2023-07-02T13:12:47;20.40;99.90
54898;DHT22;40800;52.704;6.398;2023-07-02T13:15:13;20.80;99.90
54898;DHT22;40800;52.704;6.398;2023-07-02T13:17:38;20.80;99.90
54898;DHT22;40800;52.704;6.398;2023-07-02T13:20:04;20.90;99.90
54898;DHT22;40800;52.704;6.398;2023-07-02T13:22:30;21.20;99.90
54898;DHT22;40800;52.704;6.398;2023-07-02T13:24:56;21.00;26.90
54898;DHT22;40800;52.704;6.398;2023-07-02T13:27:21;21.00;1.00
54898;DHT22;40800;52.704;6.398;2023-07-02T13:29:47;21.10;1.00
54898;DHT22;40800;52.704;6.398;2023-07-02T13:32:13;21.20;99.90
54898;DHT22;40800;52.704;6.398;2023-07-02T13:34:38;20.90;99.90
54898;DHT22;40800;52.704;6.398;2023-07-02T13:37:04;20.90;99.90
54898;DHT22;40800;52.704;6.398;2023-07-02T13:39:30;20.40;99.90
54898;DHT22;40800;52.704;6.398;2023-07-02T13:41:56;20.70;99.90
54898;DHT22;40800;52.704;6.398;2023-07-02T13:44:25;20.80;99.90
54898;DHT22;40800;52.704;6.398;2023-07-02T13:46:50;20.70;99.90
54898;DHT22;40800;52.704;6.398;2023-07-02T13:49:16;20.20;99.90
54898;DHT22;40800;52.704;6.398;2023-07-02T13:51:42;19.90;99.90
54898;DHT22;40800;52.704;6.398;2023-07-02T13:54:09;19.50;99.90
54898;DHT22;40800;52.704;6.398;2023-07-02T13:56:35;19.30;99.90
54898;DHT22;40800;52.704;6.398;2023-07-02T13:59:01;19.20;99.90
54898;DHT22;40800;52.704;6.398;2023-07-02T14:01:27;19.10;1.00
54898;DHT22;40800;52.704;6.398;2023-07-02T14:03:53;19.00;1.00
54898;DHT22;40800;52.704;6.398;2023-07-02T14:06:20;19.00;1.00
54898;DHT22;40800;52.704;6.398;2023-07-02T14:08:45;18.90;26.10
54898;DHT22;40800;52.704;6.398;2023-07-02T14:11:11;18.90;31.00
54898;DHT22;40800;52.704;6.398;2023-07-02T14:13:36;18.80;90.70
54898;DHT22;40800;52.704;6.398;2023-07-02T14:16:02;18.90;99.90
54898;DHT22;40800;52.704;6.398;2023-07-02T14:18:28;19.00;99.90
54898;DHT22;40800;52.704;6.398;2023-07-02T14:20:53;19.10;99.90
54898;DHT22;40800;52.704;6.398;2023-07-02T14:23:19;19.20;12.00
54898;DHT22;40800;52.704;6.398;2023-07-02T14:25:44;19.20;99.90
54898;DHT22;40800;52.704;6.398;2023-07-02T14:28:10;19.30;99.90
54898;DHT22;40800;52.704;6.398;2023-07-02T14:30:36;19.10;99.90
54898;DHT22;40800;52.704;6.398;2023-07-02T14:33:02;18.90;1.00
54898;DHT22;40800;52.704;6.398;2023-07-02T14:35:28;19.10;1.00
54898;DHT22;40800;52.704;6.398;2023-07-02T14:37:56;19.60;1.00
54898;DHT22;40800;52.704;6.398;2023-07-02T14:40:22;19.70;99.90
54898;DHT22;40800;52.704;6.398;2023-07-02T14:42:48;19.40;99.90
54898;DHT22;40800;52.704;6.398;2023-07-02T14:45:13;19.30;99.90
54898;DHT22;40800;52.704;6.398;2023-07-02T14:47:39;19.20;99.90
54898;DHT22;40800;52.704;6.398;2023-07-02T14:50:05;19.20;99.90
54898;DHT22;40800;52.704;6.398;2023-07-02T14:52:31;19.10;1.00
54898;DHT22;40800;52.704;6.398;2023-07-02T14:54:56;19.10;1.00
54898;DHT22;40800;52.704;6.398;2023-07-02T14:57:25;19.10;1.00
54898;DHT22;40800;52.704;6.398;2023-07-02T14:59:50;19.10;1.00
54898;DHT22;40800;52.704;6.398;2023-07-02T15:02:17;18.90;1.00
54898;DHT22;40800;52.704;6.398;2023-07-02T15:04:43;18.90;1.00
54898;DHT22;40800;52.704;6.398;2023-07-02T15:07:10;18.80;1.00
54898;DHT22;40800;52.704;6.398;2023-07-02T15:09:36;18.70;1.00
54898;DHT22;40800;52.704;6.398;2023-07-02T15:12:02;18.60;1.00
54898;DHT22;40800;52.704;6.398;2023-07-02T15:14:27;18.50;99.90
54898;DHT22;40800;52.704;6.398;2023-07-02T15:16:53;18.40;1.00
54898;DHT22;40800;52.704;6.398;2023-07-02T15:19:18;18.40;1.00
54898;DHT22;40800;52.704;6.398;2023-07-02T15:21:44;18.60;1.00
54898;DHT22;40800;52.704;6.398;2023-07-02T15:24:10;19.00;1.00
54898;DHT22;40800;52.704;6.398;2023-07-02T15:26:39;19.50;1.00
54898;DHT22;40800;52.704;6.398;2023-07-02T15:29:05;20.10;99.90
54898;DHT22;40800;52.704;6.398;2023-07-02T15:31:31;20.00;99.90